<?xml version="1.0" encoding="UTF-8" standalone="no" ?>
<gpx xmlns="http://www.topografix.com/GPX/1/1" xmlns:xsi="http://www.w3.org/2001/XMLSchema-instance" xsi:schemaLocation="http://www.topografix.com/GPX/1/1 http://www.topografix.com/GPX/1/1/gpx.xsd" version="1.1" creator="VisuGPX - https://www.visugpx.com">
  <metadata>
    <name>COULOIR BAÏONNETTE</name>
    <desc><![CDATA[grp_trc:]]></desc>
  </metadata>
  <trk>
    <name><![CDATA[7 avr. 2022]]></name>
    <cmt><![CDATA[07:49:01]]></cmt>
    <desc><![CDATA[comment ...]]></desc>
    <trkseg>
      <trkpt lat="44.71845" lon="6.90431">
        <ele>1949</ele>
        <time>2022-04-07T05:48:58Z</time>
      </trkpt>
      <trkpt lat="44.7186" lon="6.90463">
        <ele>1949</ele>
        <time>2022-04-07T05:49:02Z</time>
      </trkpt>
      <trkpt lat="44.71873" lon="6.90436">
        <ele>1952</ele>
        <time>2022-04-07T05:50:05Z</time>
      </trkpt>
      <trkpt lat="44.71891" lon="6.90412">
        <ele>1970</ele>
        <time>2022-04-07T05:50:41Z</time>
      </trkpt>
      <trkpt lat="44.71907" lon="6.90389">
        <ele>1975</ele>
        <time>2022-04-07T05:51:04Z</time>
      </trkpt>
      <trkpt lat="44.71886" lon="6.90377">
        <ele>1984</ele>
        <time>2022-04-07T05:51:34Z</time>
      </trkpt>
      <trkpt lat="44.71851" lon="6.90418">
        <ele>1987</ele>
        <time>2022-04-07T05:52:14Z</time>
      </trkpt>
      <trkpt lat="44.71817" lon="6.90461">
        <ele>1989</ele>
        <time>2022-04-07T05:53:01Z</time>
      </trkpt>
      <trkpt lat="44.71801" lon="6.90485">
        <ele>1989</ele>
        <time>2022-04-07T05:53:22Z</time>
      </trkpt>
      <trkpt lat="44.71789" lon="6.90512">
        <ele>1987</ele>
        <time>2022-04-07T05:53:45Z</time>
      </trkpt>
      <trkpt lat="44.71775" lon="6.90538">
        <ele>1988</ele>
        <time>2022-04-07T05:54:07Z</time>
      </trkpt>
      <trkpt lat="44.71761" lon="6.90564">
        <ele>1992</ele>
        <time>2022-04-07T05:54:31Z</time>
      </trkpt>
      <trkpt lat="44.71745" lon="6.90585">
        <ele>1994</ele>
        <time>2022-04-07T05:54:51Z</time>
      </trkpt>
      <trkpt lat="44.7173" lon="6.90609">
        <ele>1995</ele>
        <time>2022-04-07T05:55:16Z</time>
      </trkpt>
      <trkpt lat="44.71711" lon="6.90629">
        <ele>1996</ele>
        <time>2022-04-07T05:55:38Z</time>
      </trkpt>
      <trkpt lat="44.71699" lon="6.90656">
        <ele>1999</ele>
        <time>2022-04-07T05:56:11Z</time>
      </trkpt>
      <trkpt lat="44.71683" lon="6.90678">
        <ele>2002</ele>
        <time>2022-04-07T05:56:36Z</time>
      </trkpt>
      <trkpt lat="44.71668" lon="6.90703">
        <ele>2007</ele>
        <time>2022-04-07T05:57:05Z</time>
      </trkpt>
      <trkpt lat="44.71654" lon="6.90729">
        <ele>2009</ele>
        <time>2022-04-07T05:57:33Z</time>
      </trkpt>
      <trkpt lat="44.71639" lon="6.90753">
        <ele>2012</ele>
        <time>2022-04-07T05:58:06Z</time>
      </trkpt>
      <trkpt lat="44.71621" lon="6.90771">
        <ele>2019</ele>
        <time>2022-04-07T05:58:35Z</time>
      </trkpt>
      <trkpt lat="44.71601" lon="6.90787">
        <ele>2024</ele>
        <time>2022-04-07T05:59:04Z</time>
      </trkpt>
      <trkpt lat="44.71584" lon="6.9081">
        <ele>2028</ele>
        <time>2022-04-07T05:59:33Z</time>
      </trkpt>
      <trkpt lat="44.71578" lon="6.9084">
        <ele>2032</ele>
        <time>2022-04-07T05:59:55Z</time>
      </trkpt>
      <trkpt lat="44.71559" lon="6.90859">
        <ele>2035</ele>
        <time>2022-04-07T06:00:27Z</time>
      </trkpt>
      <trkpt lat="44.71546" lon="6.90885">
        <ele>2039</ele>
        <time>2022-04-07T06:00:55Z</time>
      </trkpt>
      <trkpt lat="44.71525" lon="6.909">
        <ele>2044</ele>
        <time>2022-04-07T06:01:26Z</time>
      </trkpt>
      <trkpt lat="44.7151" lon="6.90924">
        <ele>2046</ele>
        <time>2022-04-07T06:02:02Z</time>
      </trkpt>
      <trkpt lat="44.71497" lon="6.90949">
        <ele>2047</ele>
        <time>2022-04-07T06:02:31Z</time>
      </trkpt>
      <trkpt lat="44.71477" lon="6.90965">
        <ele>2051</ele>
        <time>2022-04-07T06:03:05Z</time>
      </trkpt>
      <trkpt lat="44.71463" lon="6.9099">
        <ele>2054</ele>
        <time>2022-04-07T06:03:40Z</time>
      </trkpt>
      <trkpt lat="44.71446" lon="6.9101">
        <ele>2063</ele>
        <time>2022-04-07T06:04:09Z</time>
      </trkpt>
      <trkpt lat="44.71451" lon="6.91041">
        <ele>2067</ele>
        <time>2022-04-07T06:04:35Z</time>
      </trkpt>
      <trkpt lat="44.71436" lon="6.91066">
        <ele>2067</ele>
        <time>2022-04-07T06:04:59Z</time>
      </trkpt>
      <trkpt lat="44.71416" lon="6.91082">
        <ele>2069</ele>
        <time>2022-04-07T06:05:27Z</time>
      </trkpt>
      <trkpt lat="44.71394" lon="6.91095">
        <ele>2075</ele>
        <time>2022-04-07T06:06:01Z</time>
      </trkpt>
      <trkpt lat="44.71372" lon="6.91105">
        <ele>2081</ele>
        <time>2022-04-07T06:06:35Z</time>
      </trkpt>
      <trkpt lat="44.7135" lon="6.9111">
        <ele>2086</ele>
        <time>2022-04-07T06:07:45Z</time>
      </trkpt>
      <trkpt lat="44.71328" lon="6.91106">
        <ele>2088</ele>
        <time>2022-04-07T06:08:14Z</time>
      </trkpt>
      <trkpt lat="44.71304" lon="6.91105">
        <ele>2095</ele>
        <time>2022-04-07T06:08:49Z</time>
      </trkpt>
      <trkpt lat="44.71282" lon="6.91101">
        <ele>2099</ele>
        <time>2022-04-07T06:09:24Z</time>
      </trkpt>
      <trkpt lat="44.7126" lon="6.91112">
        <ele>2102</ele>
        <time>2022-04-07T06:10:08Z</time>
      </trkpt>
      <trkpt lat="44.71238" lon="6.91115">
        <ele>2107</ele>
        <time>2022-04-07T06:10:40Z</time>
      </trkpt>
      <trkpt lat="44.71216" lon="6.91124">
        <ele>2114</ele>
        <time>2022-04-07T06:11:13Z</time>
      </trkpt>
      <trkpt lat="44.71193" lon="6.91126">
        <ele>2122</ele>
        <time>2022-04-07T06:11:44Z</time>
      </trkpt>
      <trkpt lat="44.7117" lon="6.91126">
        <ele>2129</ele>
        <time>2022-04-07T06:12:18Z</time>
      </trkpt>
      <trkpt lat="44.71146" lon="6.91127">
        <ele>2132</ele>
        <time>2022-04-07T06:12:49Z</time>
      </trkpt>
      <trkpt lat="44.71124" lon="6.91124">
        <ele>2132</ele>
        <time>2022-04-07T06:13:19Z</time>
      </trkpt>
      <trkpt lat="44.71101" lon="6.91127">
        <ele>2142</ele>
        <time>2022-04-07T06:14:43Z</time>
      </trkpt>
      <trkpt lat="44.71079" lon="6.91119">
        <ele>2148</ele>
        <time>2022-04-07T06:15:14Z</time>
      </trkpt>
      <trkpt lat="44.71056" lon="6.91114">
        <ele>2152</ele>
        <time>2022-04-07T06:15:45Z</time>
      </trkpt>
      <trkpt lat="44.71034" lon="6.91112">
        <ele>2156</ele>
        <time>2022-04-07T06:16:32Z</time>
      </trkpt>
      <trkpt lat="44.7101" lon="6.91111">
        <ele>2159</ele>
        <time>2022-04-07T06:17:07Z</time>
      </trkpt>
      <trkpt lat="44.70987" lon="6.91114">
        <ele>2162</ele>
        <time>2022-04-07T06:17:35Z</time>
      </trkpt>
      <trkpt lat="44.70965" lon="6.91114">
        <ele>2166</ele>
        <time>2022-04-07T06:18:07Z</time>
      </trkpt>
      <trkpt lat="44.70942" lon="6.91115">
        <ele>2169</ele>
        <time>2022-04-07T06:18:42Z</time>
      </trkpt>
      <trkpt lat="44.70921" lon="6.91103">
        <ele>2173</ele>
        <time>2022-04-07T06:19:27Z</time>
      </trkpt>
      <trkpt lat="44.70903" lon="6.91083">
        <ele>2181</ele>
        <time>2022-04-07T06:20:01Z</time>
      </trkpt>
      <trkpt lat="44.70881" lon="6.91088">
        <ele>2188</ele>
        <time>2022-04-07T06:20:36Z</time>
      </trkpt>
      <trkpt lat="44.70858" lon="6.91092">
        <ele>2190</ele>
        <time>2022-04-07T06:21:06Z</time>
      </trkpt>
      <trkpt lat="44.70836" lon="6.91101">
        <ele>2198</ele>
        <time>2022-04-07T06:21:47Z</time>
      </trkpt>
      <trkpt lat="44.70817" lon="6.91084">
        <ele>2207</ele>
        <time>2022-04-07T06:22:34Z</time>
      </trkpt>
      <trkpt lat="44.70795" lon="6.91076">
        <ele>2213</ele>
        <time>2022-04-07T06:23:09Z</time>
      </trkpt>
      <trkpt lat="44.70774" lon="6.91063">
        <ele>2219</ele>
        <time>2022-04-07T06:23:51Z</time>
      </trkpt>
      <trkpt lat="44.70752" lon="6.91057">
        <ele>2224</ele>
        <time>2022-04-07T06:24:33Z</time>
      </trkpt>
      <trkpt lat="44.70729" lon="6.91048">
        <ele>2235</ele>
        <time>2022-04-07T06:26:38Z</time>
      </trkpt>
      <trkpt lat="44.70708" lon="6.91038">
        <ele>2237</ele>
        <time>2022-04-07T06:27:07Z</time>
      </trkpt>
      <trkpt lat="44.70686" lon="6.91048">
        <ele>2241</ele>
        <time>2022-04-07T06:27:57Z</time>
      </trkpt>
      <trkpt lat="44.70663" lon="6.91045">
        <ele>2250</ele>
        <time>2022-04-07T06:28:36Z</time>
      </trkpt>
      <trkpt lat="44.7064" lon="6.9104">
        <ele>2258</ele>
        <time>2022-04-07T06:29:23Z</time>
      </trkpt>
      <trkpt lat="44.70618" lon="6.91031">
        <ele>2262</ele>
        <time>2022-04-07T06:29:55Z</time>
      </trkpt>
      <trkpt lat="44.70596" lon="6.91039">
        <ele>2267</ele>
        <time>2022-04-07T06:30:32Z</time>
      </trkpt>
      <trkpt lat="44.70574" lon="6.91033">
        <ele>2275</ele>
        <time>2022-04-07T06:31:13Z</time>
      </trkpt>
      <trkpt lat="44.70551" lon="6.91037">
        <ele>2283</ele>
        <time>2022-04-07T06:31:55Z</time>
      </trkpt>
      <trkpt lat="44.7053" lon="6.91025">
        <ele>2287</ele>
        <time>2022-04-07T06:32:42Z</time>
      </trkpt>
      <trkpt lat="44.70512" lon="6.91005">
        <ele>2297</ele>
        <time>2022-04-07T06:33:20Z</time>
      </trkpt>
      <trkpt lat="44.70495" lon="6.90984">
        <ele>2307</ele>
        <time>2022-04-07T06:34:04Z</time>
      </trkpt>
      <trkpt lat="44.70488" lon="6.90953">
        <ele>2313</ele>
        <time>2022-04-07T06:34:49Z</time>
      </trkpt>
      <trkpt lat="44.70486" lon="6.90922">
        <ele>2317</ele>
        <time>2022-04-07T06:35:25Z</time>
      </trkpt>
      <trkpt lat="44.70478" lon="6.90891">
        <ele>2323</ele>
        <time>2022-04-07T06:36:01Z</time>
      </trkpt>
      <trkpt lat="44.70473" lon="6.90861">
        <ele>2327</ele>
        <time>2022-04-07T06:36:41Z</time>
      </trkpt>
      <trkpt lat="44.70475" lon="6.90829">
        <ele>2330</ele>
        <time>2022-04-07T06:37:31Z</time>
      </trkpt>
      <trkpt lat="44.70483" lon="6.908">
        <ele>2334</ele>
        <time>2022-04-07T06:38:15Z</time>
      </trkpt>
      <trkpt lat="44.70493" lon="6.90771">
        <ele>2341</ele>
        <time>2022-04-07T06:38:52Z</time>
      </trkpt>
      <trkpt lat="44.70493" lon="6.90739">
        <ele>2346</ele>
        <time>2022-04-07T06:39:47Z</time>
      </trkpt>
      <trkpt lat="44.70472" lon="6.90749">
        <ele>2372</ele>
        <time>2022-04-07T06:40:57Z</time>
      </trkpt>
      <trkpt lat="44.70466" lon="6.90719">
        <ele>2362</ele>
        <time>2022-04-07T06:41:42Z</time>
      </trkpt>
      <trkpt lat="44.70469" lon="6.90686">
        <ele>2364</ele>
        <time>2022-04-07T06:42:17Z</time>
      </trkpt>
      <trkpt lat="44.7045" lon="6.90705">
        <ele>2371</ele>
        <time>2022-04-07T06:43:02Z</time>
      </trkpt>
      <trkpt lat="44.70442" lon="6.90675">
        <ele>2388</ele>
        <time>2022-04-07T06:44:17Z</time>
      </trkpt>
      <trkpt lat="44.70421" lon="6.90688">
        <ele>2392</ele>
        <time>2022-04-07T06:45:12Z</time>
      </trkpt>
      <trkpt lat="44.70401" lon="6.90674">
        <ele>2400</ele>
        <time>2022-04-07T06:46:58Z</time>
      </trkpt>
      <trkpt lat="44.70378" lon="6.90679">
        <ele>2417</ele>
        <time>2022-04-07T06:49:07Z</time>
      </trkpt>
      <trkpt lat="44.70365" lon="6.90706">
        <ele>2421</ele>
        <time>2022-04-07T06:49:50Z</time>
      </trkpt>
      <trkpt lat="44.70342" lon="6.90698">
        <ele>2442</ele>
        <time>2022-04-07T06:54:01Z</time>
      </trkpt>
      <trkpt lat="44.70349" lon="6.90668">
        <ele>2449</ele>
        <time>2022-04-07T06:55:10Z</time>
      </trkpt>
      <trkpt lat="44.70327" lon="6.9067">
        <ele>2460</ele>
        <time>2022-04-07T06:56:49Z</time>
      </trkpt>
      <trkpt lat="44.70328" lon="6.90637">
        <ele>2465</ele>
        <time>2022-04-07T06:57:36Z</time>
      </trkpt>
      <trkpt lat="44.70307" lon="6.90626">
        <ele>2479</ele>
        <time>2022-04-07T06:59:32Z</time>
      </trkpt>
      <trkpt lat="44.70294" lon="6.90653">
        <ele>2483</ele>
        <time>2022-04-07T07:00:08Z</time>
      </trkpt>
      <trkpt lat="44.70296" lon="6.9062">
        <ele>2488</ele>
        <time>2022-04-07T07:00:48Z</time>
      </trkpt>
      <trkpt lat="44.70275" lon="6.90634">
        <ele>2498</ele>
        <time>2022-04-07T07:02:27Z</time>
      </trkpt>
      <trkpt lat="44.70273" lon="6.90603">
        <ele>2495</ele>
        <time>2022-04-07T07:03:20Z</time>
      </trkpt>
      <trkpt lat="44.70255" lon="6.90624">
        <ele>2511</ele>
        <time>2022-04-07T07:04:39Z</time>
      </trkpt>
      <trkpt lat="44.70244" lon="6.90596">
        <ele>2520</ele>
        <time>2022-04-07T07:06:35Z</time>
      </trkpt>
      <trkpt lat="44.70221" lon="6.90597">
        <ele>2551</ele>
        <time>2022-04-07T07:10:06Z</time>
      </trkpt>
      <trkpt lat="44.70209" lon="6.9057">
        <ele>2558</ele>
        <time>2022-04-07T07:16:49Z</time>
      </trkpt>
      <trkpt lat="44.70189" lon="6.90555">
        <ele>2574</ele>
        <time>2022-04-07T07:20:50Z</time>
      </trkpt>
      <trkpt lat="44.70167" lon="6.90562">
        <ele>2626</ele>
        <time>2022-04-07T07:23:16Z</time>
      </trkpt>
      <trkpt lat="44.70165" lon="6.90561">
        <ele>2611</ele>
        <time>2022-04-07T07:25:51Z</time>
      </trkpt>
      <trkpt lat="44.70181" lon="6.90585">
        <ele>2613</ele>
        <time>2022-04-07T07:26:42Z</time>
      </trkpt>
      <trkpt lat="44.70224" lon="6.90596">
        <ele>2614</ele>
        <time>2022-04-07T07:26:44Z</time>
      </trkpt>
      <trkpt lat="44.70246" lon="6.906">
        <ele>2615</ele>
        <time>2022-04-07T07:26:45Z</time>
      </trkpt>
      <trkpt lat="44.70271" lon="6.906">
        <ele>2616</ele>
        <time>2022-04-07T07:26:47Z</time>
      </trkpt>
      <trkpt lat="44.70259" lon="6.90573">
        <ele>2623</ele>
        <time>2022-04-07T07:27:35Z</time>
      </trkpt>
      <trkpt lat="44.70241" lon="6.90554">
        <ele>2635</ele>
        <time>2022-04-07T07:27:55Z</time>
      </trkpt>
      <trkpt lat="44.70216" lon="6.90561">
        <ele>2641</ele>
        <time>2022-04-07T07:28:04Z</time>
      </trkpt>
      <trkpt lat="44.70194" lon="6.90569">
        <ele>2644</ele>
        <time>2022-04-07T07:28:12Z</time>
      </trkpt>
      <trkpt lat="44.7017" lon="6.90578">
        <ele>2642</ele>
        <time>2022-04-07T07:28:20Z</time>
      </trkpt>
      <trkpt lat="44.70151" lon="6.90598">
        <ele>2635</ele>
        <time>2022-04-07T07:28:56Z</time>
      </trkpt>
      <trkpt lat="44.70173" lon="6.90621">
        <ele>2629</ele>
        <time>2022-04-07T07:40:36Z</time>
      </trkpt>
      <trkpt lat="44.70201" lon="6.90615">
        <ele>2630</ele>
        <time>2022-04-07T07:40:42Z</time>
      </trkpt>
      <trkpt lat="44.70179" lon="6.90608">
        <ele>2649</ele>
        <time>2022-04-07T07:41:43Z</time>
      </trkpt>
      <trkpt lat="44.70156" lon="6.9061">
        <ele>2648</ele>
        <time>2022-04-07T07:42:09Z</time>
      </trkpt>
      <trkpt lat="44.70133" lon="6.90615">
        <ele>2644</ele>
        <time>2022-04-07T07:42:45Z</time>
      </trkpt>
      <trkpt lat="44.70118" lon="6.9059">
        <ele>2637</ele>
        <time>2022-04-07T07:45:54Z</time>
      </trkpt>
      <trkpt lat="44.70096" lon="6.90579">
        <ele>2652</ele>
        <time>2022-04-07T07:50:17Z</time>
      </trkpt>
      <trkpt lat="44.70097" lon="6.90577">
        <ele>2712</ele>
        <time>2022-04-07T07:58:45Z</time>
      </trkpt>
      <trkpt lat="44.70071" lon="6.90572">
        <ele>2710</ele>
        <time>2022-04-07T07:59:30Z</time>
      </trkpt>
      <trkpt lat="44.70058" lon="6.90546">
        <ele>2698</ele>
        <time>2022-04-07T08:00:46Z</time>
      </trkpt>
      <trkpt lat="44.70035" lon="6.90551">
        <ele>2716</ele>
        <time>2022-04-07T08:06:27Z</time>
      </trkpt>
      <trkpt lat="44.7003" lon="6.90519">
        <ele>2720</ele>
        <time>2022-04-07T08:09:17Z</time>
      </trkpt>
      <trkpt lat="44.70007" lon="6.90524">
        <ele>2735</ele>
        <time>2022-04-07T08:13:15Z</time>
      </trkpt>
      <trkpt lat="44.69988" lon="6.90542">
        <ele>2740</ele>
        <time>2022-04-07T08:16:51Z</time>
      </trkpt>
      <trkpt lat="44.6997" lon="6.90522">
        <ele>2764</ele>
        <time>2022-04-07T08:23:21Z</time>
      </trkpt>
      <trkpt lat="44.69948" lon="6.90533">
        <ele>2785</ele>
        <time>2022-04-07T08:29:53Z</time>
      </trkpt>
      <trkpt lat="44.69967" lon="6.90514">
        <ele>2785</ele>
        <time>2022-04-07T08:30:17Z</time>
      </trkpt>
      <trkpt lat="44.70002" lon="6.90369">
        <ele>2784</ele>
        <time>2022-04-07T08:30:29Z</time>
      </trkpt>
      <trkpt lat="44.69987" lon="6.90437">
        <ele>2784</ele>
        <time>2022-04-07T08:30:33Z</time>
      </trkpt>
      <trkpt lat="44.69952" lon="6.90492">
        <ele>2784</ele>
        <time>2022-04-07T08:30:51Z</time>
      </trkpt>
      <trkpt lat="44.69975" lon="6.905">
        <ele>2816</ele>
        <time>2022-04-07T08:33:36Z</time>
      </trkpt>
      <trkpt lat="44.69957" lon="6.9052">
        <ele>2816</ele>
        <time>2022-04-07T08:34:55Z</time>
      </trkpt>
      <trkpt lat="44.69971" lon="6.90489">
        <ele>2808</ele>
        <time>2022-04-07T08:36:04Z</time>
      </trkpt>
      <trkpt lat="44.69951" lon="6.90466">
        <ele>2796</ele>
        <time>2022-04-07T08:37:44Z</time>
      </trkpt>
      <trkpt lat="44.69931" lon="6.90486">
        <ele>2785</ele>
        <time>2022-04-07T08:38:18Z</time>
      </trkpt>
      <trkpt lat="44.69953" lon="6.90501">
        <ele>2842</ele>
        <time>2022-04-07T08:45:37Z</time>
      </trkpt>
      <trkpt lat="44.69927" lon="6.90507">
        <ele>2828</ele>
        <time>2022-04-07T08:50:46Z</time>
      </trkpt>
      <trkpt lat="44.69905" lon="6.90519">
        <ele>2828</ele>
        <time>2022-04-07T08:52:38Z</time>
      </trkpt>
      <trkpt lat="44.69891" lon="6.90545">
        <ele>2860</ele>
        <time>2022-04-07T09:04:53Z</time>
      </trkpt>
      <trkpt lat="44.69863" lon="6.90551">
        <ele>2874</ele>
        <time>2022-04-07T09:11:01Z</time>
      </trkpt>
      <trkpt lat="44.69861" lon="6.90551">
        <ele>2905</ele>
        <time>2022-04-07T09:15:16Z</time>
      </trkpt>
      <trkpt lat="44.6984" lon="6.90564">
        <ele>2896</ele>
        <time>2022-04-07T09:19:21Z</time>
      </trkpt>
      <trkpt lat="44.69823" lon="6.90586">
        <ele>2895</ele>
        <time>2022-04-07T09:19:38Z</time>
      </trkpt>
      <trkpt lat="44.69802" lon="6.90603">
        <ele>2893</ele>
        <time>2022-04-07T09:19:52Z</time>
      </trkpt>
      <trkpt lat="44.69762" lon="6.90632">
        <ele>2887</ele>
        <time>2022-04-07T09:20:23Z</time>
      </trkpt>
      <trkpt lat="44.6974" lon="6.90644">
        <ele>2890</ele>
        <time>2022-04-07T09:20:49Z</time>
      </trkpt>
      <trkpt lat="44.69721" lon="6.90671">
        <ele>2898</ele>
        <time>2022-04-07T09:22:07Z</time>
      </trkpt>
      <trkpt lat="44.69699" lon="6.90665">
        <ele>2902</ele>
        <time>2022-04-07T09:22:31Z</time>
      </trkpt>
      <trkpt lat="44.69677" lon="6.90674">
        <ele>2902</ele>
        <time>2022-04-07T09:22:48Z</time>
      </trkpt>
      <trkpt lat="44.69662" lon="6.90699">
        <ele>2892</ele>
        <time>2022-04-07T09:23:21Z</time>
      </trkpt>
      <trkpt lat="44.69865" lon="6.90572">
        <ele>2908</ele>
        <time>2022-04-07T09:53:27Z</time>
      </trkpt>
      <trkpt lat="44.69858" lon="6.90581">
        <ele>2909</ele>
        <time>2022-04-07T09:53:27Z</time>
      </trkpt>
      <trkpt lat="44.69849" lon="6.9055">
        <ele>2902</ele>
        <time>2022-04-07T09:56:00Z</time>
      </trkpt>
      <trkpt lat="44.69853" lon="6.90515">
        <ele>2897</ele>
        <time>2022-04-07T09:56:07Z</time>
      </trkpt>
      <trkpt lat="44.69861" lon="6.90485">
        <ele>2892</ele>
        <time>2022-04-07T09:56:18Z</time>
      </trkpt>
      <trkpt lat="44.69884" lon="6.90466">
        <ele>2881</ele>
        <time>2022-04-07T09:58:14Z</time>
      </trkpt>
      <trkpt lat="44.69908" lon="6.90457">
        <ele>2880</ele>
        <time>2022-04-07T09:58:21Z</time>
      </trkpt>
      <trkpt lat="44.69924" lon="6.90435">
        <ele>2873</ele>
        <time>2022-04-07T09:58:42Z</time>
      </trkpt>
      <trkpt lat="44.69947" lon="6.90428">
        <ele>2867</ele>
        <time>2022-04-07T09:59:05Z</time>
      </trkpt>
      <trkpt lat="44.69961" lon="6.90452">
        <ele>2859</ele>
        <time>2022-04-07T10:02:56Z</time>
      </trkpt>
      <trkpt lat="44.69937" lon="6.90471">
        <ele>2853</ele>
        <time>2022-04-07T10:04:47Z</time>
      </trkpt>
      <trkpt lat="44.6995" lon="6.90498">
        <ele>2838</ele>
        <time>2022-04-07T10:05:08Z</time>
      </trkpt>
      <trkpt lat="44.69969" lon="6.90521">
        <ele>2821</ele>
        <time>2022-04-07T10:07:05Z</time>
      </trkpt>
      <trkpt lat="44.70059" lon="6.9057">
        <ele>2818</ele>
        <time>2022-04-07T10:07:24Z</time>
      </trkpt>
      <trkpt lat="44.70035" lon="6.90557">
        <ele>2813</ele>
        <time>2022-04-07T10:07:56Z</time>
      </trkpt>
      <trkpt lat="44.70013" lon="6.90563">
        <ele>2806</ele>
        <time>2022-04-07T10:08:02Z</time>
      </trkpt>
      <trkpt lat="44.70036" lon="6.90566">
        <ele>2776</ele>
        <time>2022-04-07T10:09:17Z</time>
      </trkpt>
      <trkpt lat="44.70059" lon="6.9057">
        <ele>2752</ele>
        <time>2022-04-07T10:09:27Z</time>
      </trkpt>
      <trkpt lat="44.70081" lon="6.90583">
        <ele>2744</ele>
        <time>2022-04-07T10:09:33Z</time>
      </trkpt>
      <trkpt lat="44.70103" lon="6.90589">
        <ele>2736</ele>
        <time>2022-04-07T10:09:41Z</time>
      </trkpt>
      <trkpt lat="44.70127" lon="6.90596">
        <ele>2694</ele>
        <time>2022-04-07T10:11:59Z</time>
      </trkpt>
      <trkpt lat="44.70145" lon="6.90622">
        <ele>2688</ele>
        <time>2022-04-07T10:12:06Z</time>
      </trkpt>
      <trkpt lat="44.70145" lon="6.90624">
        <ele>2636</ele>
        <time>2022-04-07T10:13:54Z</time>
      </trkpt>
      <trkpt lat="44.7016" lon="6.90602">
        <ele>2637</ele>
        <time>2022-04-07T10:17:56Z</time>
      </trkpt>
      <trkpt lat="44.70168" lon="6.90571">
        <ele>2620</ele>
        <time>2022-04-07T10:19:15Z</time>
      </trkpt>
      <trkpt lat="44.70167" lon="6.90538">
        <ele>2617</ele>
        <time>2022-04-07T10:19:22Z</time>
      </trkpt>
      <trkpt lat="44.7019" lon="6.90541">
        <ele>2616</ele>
        <time>2022-04-07T10:19:38Z</time>
      </trkpt>
      <trkpt lat="44.70212" lon="6.90556">
        <ele>2607</ele>
        <time>2022-04-07T10:19:48Z</time>
      </trkpt>
      <trkpt lat="44.70231" lon="6.90577">
        <ele>2596</ele>
        <time>2022-04-07T10:19:54Z</time>
      </trkpt>
      <trkpt lat="44.70251" lon="6.90593">
        <ele>2587</ele>
        <time>2022-04-07T10:19:59Z</time>
      </trkpt>
      <trkpt lat="44.7026" lon="6.90626">
        <ele>2572</ele>
        <time>2022-04-07T10:20:05Z</time>
      </trkpt>
      <trkpt lat="44.70283" lon="6.90635">
        <ele>2559</ele>
        <time>2022-04-07T10:20:10Z</time>
      </trkpt>
      <trkpt lat="44.70309" lon="6.90642">
        <ele>2549</ele>
        <time>2022-04-07T10:20:15Z</time>
      </trkpt>
      <trkpt lat="44.70335" lon="6.90643">
        <ele>2525</ele>
        <time>2022-04-07T10:21:00Z</time>
      </trkpt>
      <trkpt lat="44.70364" lon="6.90654">
        <ele>2513</ele>
        <time>2022-04-07T10:21:04Z</time>
      </trkpt>
      <trkpt lat="44.70387" lon="6.90664">
        <ele>2506</ele>
        <time>2022-04-07T10:21:07Z</time>
      </trkpt>
      <trkpt lat="44.7041" lon="6.90683">
        <ele>2497</ele>
        <time>2022-04-07T10:21:14Z</time>
      </trkpt>
      <trkpt lat="44.70432" lon="6.90697">
        <ele>2484</ele>
        <time>2022-04-07T10:21:20Z</time>
      </trkpt>
      <trkpt lat="44.70443" lon="6.90667">
        <ele>2441</ele>
        <time>2022-04-07T10:21:57Z</time>
      </trkpt>
      <trkpt lat="44.70514" lon="6.90706">
        <ele>2389</ele>
        <time>2022-04-07T10:22:11Z</time>
      </trkpt>
      <trkpt lat="44.70537" lon="6.90716">
        <ele>2373</ele>
        <time>2022-04-07T10:22:16Z</time>
      </trkpt>
      <trkpt lat="44.70559" lon="6.90706">
        <ele>2362</ele>
        <time>2022-04-07T10:22:20Z</time>
      </trkpt>
      <trkpt lat="44.70581" lon="6.90716">
        <ele>2340</ele>
        <time>2022-04-07T10:22:25Z</time>
      </trkpt>
      <trkpt lat="44.70628" lon="6.90717">
        <ele>2312</ele>
        <time>2022-04-07T10:22:34Z</time>
      </trkpt>
      <trkpt lat="44.7064" lon="6.90782">
        <ele>2286</ele>
        <time>2022-04-07T10:22:43Z</time>
      </trkpt>
      <trkpt lat="44.70661" lon="6.90797">
        <ele>2277</ele>
        <time>2022-04-07T10:22:47Z</time>
      </trkpt>
      <trkpt lat="44.70686" lon="6.90803">
        <ele>2271</ele>
        <time>2022-04-07T10:22:50Z</time>
      </trkpt>
      <trkpt lat="44.70706" lon="6.9082">
        <ele>2266</ele>
        <time>2022-04-07T10:22:53Z</time>
      </trkpt>
      <trkpt lat="44.70719" lon="6.90847">
        <ele>2259</ele>
        <time>2022-04-07T10:22:59Z</time>
      </trkpt>
      <trkpt lat="44.70739" lon="6.90826">
        <ele>2252</ele>
        <time>2022-04-07T10:23:04Z</time>
      </trkpt>
      <trkpt lat="44.70765" lon="6.9082">
        <ele>2243</ele>
        <time>2022-04-07T10:23:14Z</time>
      </trkpt>
      <trkpt lat="44.70791" lon="6.90836">
        <ele>2236</ele>
        <time>2022-04-07T10:23:19Z</time>
      </trkpt>
      <trkpt lat="44.7081" lon="6.90855">
        <ele>2230</ele>
        <time>2022-04-07T10:23:23Z</time>
      </trkpt>
      <trkpt lat="44.70829" lon="6.90835">
        <ele>2220</ele>
        <time>2022-04-07T10:23:31Z</time>
      </trkpt>
      <trkpt lat="44.70855" lon="6.90823">
        <ele>2212</ele>
        <time>2022-04-07T10:23:40Z</time>
      </trkpt>
      <trkpt lat="44.70881" lon="6.90824">
        <ele>2206</ele>
        <time>2022-04-07T10:23:44Z</time>
      </trkpt>
      <trkpt lat="44.70903" lon="6.90829">
        <ele>2201</ele>
        <time>2022-04-07T10:23:47Z</time>
      </trkpt>
      <trkpt lat="44.70925" lon="6.9084">
        <ele>2197</ele>
        <time>2022-04-07T10:23:50Z</time>
      </trkpt>
      <trkpt lat="44.70953" lon="6.90855">
        <ele>2193</ele>
        <time>2022-04-07T10:23:54Z</time>
      </trkpt>
      <trkpt lat="44.70978" lon="6.90858">
        <ele>2187</ele>
        <time>2022-04-07T10:23:58Z</time>
      </trkpt>
      <trkpt lat="44.71004" lon="6.9085">
        <ele>2181</ele>
        <time>2022-04-07T10:24:03Z</time>
      </trkpt>
      <trkpt lat="44.71022" lon="6.9083">
        <ele>2174</ele>
        <time>2022-04-07T10:24:09Z</time>
      </trkpt>
      <trkpt lat="44.71045" lon="6.90846">
        <ele>2169</ele>
        <time>2022-04-07T10:24:16Z</time>
      </trkpt>
      <trkpt lat="44.71068" lon="6.90859">
        <ele>2164</ele>
        <time>2022-04-07T10:24:21Z</time>
      </trkpt>
      <trkpt lat="44.71091" lon="6.90869">
        <ele>2161</ele>
        <time>2022-04-07T10:24:25Z</time>
      </trkpt>
      <trkpt lat="44.7111" lon="6.90893">
        <ele>2160</ele>
        <time>2022-04-07T10:24:32Z</time>
      </trkpt>
      <trkpt lat="44.71126" lon="6.90916">
        <ele>2158</ele>
        <time>2022-04-07T10:24:37Z</time>
      </trkpt>
      <trkpt lat="44.71142" lon="6.90938">
        <ele>2155</ele>
        <time>2022-04-07T10:24:42Z</time>
      </trkpt>
      <trkpt lat="44.71168" lon="6.90951">
        <ele>2150</ele>
        <time>2022-04-07T10:24:48Z</time>
      </trkpt>
      <trkpt lat="44.71192" lon="6.9097">
        <ele>2145</ele>
        <time>2022-04-07T10:24:53Z</time>
      </trkpt>
      <trkpt lat="44.71214" lon="6.90988">
        <ele>2139</ele>
        <time>2022-04-07T10:24:56Z</time>
      </trkpt>
      <trkpt lat="44.71237" lon="6.90995">
        <ele>2134</ele>
        <time>2022-04-07T10:24:59Z</time>
      </trkpt>
      <trkpt lat="44.71259" lon="6.90993">
        <ele>2127</ele>
        <time>2022-04-07T10:25:03Z</time>
      </trkpt>
      <trkpt lat="44.71281" lon="6.90984">
        <ele>2122</ele>
        <time>2022-04-07T10:25:09Z</time>
      </trkpt>
      <trkpt lat="44.71304" lon="6.90997">
        <ele>2115</ele>
        <time>2022-04-07T10:25:17Z</time>
      </trkpt>
      <trkpt lat="44.71326" lon="6.91006">
        <ele>2108</ele>
        <time>2022-04-07T10:25:24Z</time>
      </trkpt>
      <trkpt lat="44.71348" lon="6.9102">
        <ele>2099</ele>
        <time>2022-04-07T10:25:30Z</time>
      </trkpt>
      <trkpt lat="44.71367" lon="6.91037">
        <ele>2090</ele>
        <time>2022-04-07T10:25:36Z</time>
      </trkpt>
      <trkpt lat="44.71389" lon="6.91019">
        <ele>2079</ele>
        <time>2022-04-07T10:25:52Z</time>
      </trkpt>
      <trkpt lat="44.71411" lon="6.91002">
        <ele>2074</ele>
        <time>2022-04-07T10:25:57Z</time>
      </trkpt>
      <trkpt lat="44.7143" lon="6.90984">
        <ele>2070</ele>
        <time>2022-04-07T10:26:02Z</time>
      </trkpt>
      <trkpt lat="44.71454" lon="6.90989">
        <ele>2062</ele>
        <time>2022-04-07T10:26:10Z</time>
      </trkpt>
      <trkpt lat="44.71476" lon="6.9098">
        <ele>2055</ele>
        <time>2022-04-07T10:26:19Z</time>
      </trkpt>
      <trkpt lat="44.71486" lon="6.90952">
        <ele>2050</ele>
        <time>2022-04-07T10:26:25Z</time>
      </trkpt>
      <trkpt lat="44.71503" lon="6.90927">
        <ele>2045</ele>
        <time>2022-04-07T10:26:30Z</time>
      </trkpt>
      <trkpt lat="44.71522" lon="6.90907">
        <ele>2041</ele>
        <time>2022-04-07T10:26:35Z</time>
      </trkpt>
      <trkpt lat="44.71543" lon="6.90893">
        <ele>2037</ele>
        <time>2022-04-07T10:26:38Z</time>
      </trkpt>
      <trkpt lat="44.7156" lon="6.9087">
        <ele>2032</ele>
        <time>2022-04-07T10:26:42Z</time>
      </trkpt>
      <trkpt lat="44.71576" lon="6.90847">
        <ele>2027</ele>
        <time>2022-04-07T10:26:46Z</time>
      </trkpt>
      <trkpt lat="44.71588" lon="6.90817">
        <ele>2023</ele>
        <time>2022-04-07T10:26:51Z</time>
      </trkpt>
      <trkpt lat="44.71605" lon="6.90792">
        <ele>2019</ele>
        <time>2022-04-07T10:27:00Z</time>
      </trkpt>
      <trkpt lat="44.71622" lon="6.90765">
        <ele>2017</ele>
        <time>2022-04-07T10:27:08Z</time>
      </trkpt>
      <trkpt lat="44.71639" lon="6.90733">
        <ele>2014</ele>
        <time>2022-04-07T10:27:14Z</time>
      </trkpt>
      <trkpt lat="44.71658" lon="6.90709">
        <ele>2011</ele>
        <time>2022-04-07T10:27:18Z</time>
      </trkpt>
      <trkpt lat="44.71675" lon="6.9068">
        <ele>2008</ele>
        <time>2022-04-07T10:27:23Z</time>
      </trkpt>
      <trkpt lat="44.71691" lon="6.90655">
        <ele>2003</ele>
        <time>2022-04-07T10:27:29Z</time>
      </trkpt>
      <trkpt lat="44.71704" lon="6.90629">
        <ele>1998</ele>
        <time>2022-04-07T10:27:35Z</time>
      </trkpt>
      <trkpt lat="44.71719" lon="6.90602">
        <ele>1993</ele>
        <time>2022-04-07T10:27:42Z</time>
      </trkpt>
      <trkpt lat="44.71738" lon="6.90584">
        <ele>1990</ele>
        <time>2022-04-07T10:27:50Z</time>
      </trkpt>
      <trkpt lat="44.71759" lon="6.90567">
        <ele>1987</ele>
        <time>2022-04-07T10:28:01Z</time>
      </trkpt>
      <trkpt lat="44.71803" lon="6.90491">
        <ele>1983</ele>
        <time>2022-04-07T10:28:31Z</time>
      </trkpt>
      <trkpt lat="44.71818" lon="6.90464">
        <ele>1982</ele>
        <time>2022-04-07T10:28:44Z</time>
      </trkpt>
      <trkpt lat="44.71837" lon="6.90447">
        <ele>1981</ele>
        <time>2022-04-07T10:28:56Z</time>
      </trkpt>
    </trkseg>
  </trk>
</gpx>